This is the latest recevied weather packets stored in our database for station/object CA3DPI. If no packets are shown the sender has not sent any weather packets the latest 10 day(s).
| Time | Temp. | Humidity | Pressure | Rain* | Wind** | Luminosity | Snow |
|---|---|---|---|---|---|---|---|
| 1777583209 | 27.78° C | 38% | 1015.1 hPa | - | - | - | - |
| 1777582608 | 27.78° C | 38% | 1015 hPa | - | - | - | - |
| 1777582008 | 26.67° C | 40% | 1015 hPa | - | - | - | - |
| 1777579517 | 31.67° C | 32% | 1014.8 hPa | - | - | - | - |
| 1777578917 | 32.22° C | 32% | 1014.7 hPa | - | - | - | - |
| 1777578316 | 32.78° C | 33% | 1014.7 hPa | - | - | - | - |
| 1777577716 | 32.78° C | 30% | 1014.7 hPa | - | - | - | - |
| 1777577116 | 33.89° C | 34% | 1014.7 hPa | - | - | - | - |
| 1777576516 | 33.33° C | 33% | 1014.6 hPa | - | - | - | - |
| 1777575916 | 33.89° C | 31% | 1014.5 hPa | - | - | - | - |
| 1777575316 | 33.89° C | 32% | 1014.5 hPa | - | - | - | - |
| 1777574715 | 33.89° C | 31% | 1014.6 hPa | - | - | - | - |
| 1777574206 | 34.44° C | 31% | 1014.6 hPa | - | - | - | - |
| 1777574115 | 34.44° C | 31% | 1014.6 hPa | - | - | - | - |
| 1777573515 | 33.89° C | 30% | 1014.6 hPa | - | - | - | - |
| 1777572915 | 33.89° C | 31% | 1014.7 hPa | - | - | - | - |
| 1777572315 | 33.89° C | 32% | 1014.8 hPa | - | - | - | - |
| 1777571715 | 34.44° C | 31% | 1014.9 hPa | - | - | - | - |
| 1777571114 | 34.44° C | 32% | 1015.1 hPa | - | - | - | - |
| 1777570514 | 33.89° C | 32% | 1015.2 hPa | - | - | - | - |
| 1777569913 | 33.89° C | 31% | 1015.3 hPa | - | - | - | - |
| 1777569313 | 33.89° C | 34% | 1015.4 hPa | - | - | - | - |
| 1777568713 | 33.89° C | 30% | 1015.5 hPa | - | - | - | - |
| 1777568113 | 33.33° C | 33% | 1015.6 hPa | - | - | - | - |
| 1777567518 | 33.33° C | 32% | 1015.7 hPa | - | - | - | - |
* Rain since midnight (hover to see other rain measurements)
** Current wind speed in m/s (hover to see current wind gust speed)